logo
Rechercher aéroport 
image banner adimage banner adimage banner ad
image banner ad

UGKO - Kutaisi/Kopitnari

Situé à Kutaisi, Georgia

ICAO - UGKO, IATA - KUT

Données fournies par Airmate  

Information générale

Coordonnées: N42°10'37" E42°28'58"
Élévation : 160 feet MSL.
Variation magnétique : 7° East
Voir autres Aéroports à Imereti

Données opérationnelles

Special qualification required
Heure actuelle UTC:
Heure actuelle locale:
Météo
METAR: UGKO 032100Z VRB02KT 9999 BKN054 09/07 Q1016 NOSIG
TAF: TAF UGKO 031700Z 0318/0418 08015KT 9999 BKN050 TX15/0411Z TN07/0403Z TEMPO 0318/0321 26007KT BECMG 0405/0408 BKN080 TEMPO 0411/0418 26017KT
Voir NOTAMs / SUP AIP / TFR affectant cet aéroport [VIEW]
Fréquences de communication: [VIEW]

Pistes:

Identifiant RWYQFULongueur (ft)Largeur (ft)SurfaceLDA (ft)
0780°8202148CONC+ASPH8202
25260°8202148CONC+ASPH8202

Coordonnées de l'aéroport

Adresse: Kutaisi Georgia

Vue satellite de UGKO